SBI769 UNNT-UNKL
Flight info
| Callsign | SBI769 |
|---|---|
| Flight time | N/A |
| Altitude | 35000 |
| Route | OGATI A308 RISPA A366 KESED A309 ROTLI A300 RANET |
| Aircraft | B38M/M-SDE1FGHILORVWXY/HB1 |
Departure
| Time | 2026-05-01 15:12 |
|---|---|
| Airport | Novosibirsk Tolmachevo Airport (UNNT) |
Arrival
| Time | N/A |
|---|---|
| Airport | Krasnoyarsk International Airport (UNKL) |
| Time | Latitude | Longitude | Altitude | Speed | Heading |
|---|---|---|---|---|---|
| 2026-05-01 14:42 | 55.00986 | 82.66453 | 375 ft | 0 kts | 171° |
| 2026-05-01 14:58 | 55.00988 | 82.66452 | 375 ft | 2 kts | 171° |
| 2026-05-01 14:59 | 55.01004 | 82.66448 | 375 ft | 2 kts | 174° |
| 2026-05-01 14:59 | 55.01020 | 82.66447 | 375 ft | 2 kts | 185° |
| 2026-05-01 14:59 | 55.01036 | 82.66456 | 375 ft | 2 kts | 233° |
| 2026-05-01 14:59 | 55.01041 | 82.66472 | 375 ft | 1 kts | 248° |
| 2026-05-01 15:00 | 55.01041 | 82.66473 | 375 ft | 0 kts | 248° |
| 2026-05-01 15:04 | 55.01038 | 82.66456 | 375 ft | 5 kts | 253° |
| 2026-05-01 15:04 | 55.01013 | 82.66347 | 375 ft | 11 kts | 238° |
| 2026-05-01 15:05 | 55.00969 | 82.66225 | 375 ft | 11 kts | 253° |
| 2026-05-01 15:05 | 55.00956 | 82.66085 | 375 ft | 12 kts | 261° |
| 2026-05-01 15:05 | 55.00942 | 82.65930 | 375 ft | 14 kts | 261° |
| 2026-05-01 15:05 | 55.00923 | 82.65739 | 375 ft | 18 kts | 262° |
| 2026-05-01 15:06 | 55.00908 | 82.65543 | 375 ft | 17 kts | 262° |
| 2026-05-01 15:06 | 55.00889 | 82.65344 | 375 ft | 15 kts | 261° |
| 2026-05-01 15:06 | 55.00880 | 82.65146 | 375 ft | 20 kts | 263° |
| 2026-05-01 15:06 | 55.00887 | 82.64880 | 376 ft | 22 kts | 283° |
| 2026-05-01 15:07 | 55.00919 | 82.64619 | 376 ft | 19 kts | 282° |
| 2026-05-01 15:07 | 55.00953 | 82.64383 | 376 ft | 21 kts | 283° |
| 2026-05-01 15:07 | 55.00975 | 82.64213 | 376 ft | 10 kts | 283° |
| 2026-05-01 15:07 | 55.00987 | 82.64123 | 376 ft | 8 kts | 283° |
| 2026-05-01 15:08 | 55.00991 | 82.64095 | 376 ft | 0 kts | 283° |
| 2026-05-01 15:08 | 55.00991 | 82.64091 | 376 ft | 2 kts | 283° |
| 2026-05-01 15:09 | 55.01011 | 82.64022 | 376 ft | 9 kts | 321° |
| 2026-05-01 15:09 | 55.01015 | 82.64018 | 376 ft | 0 kts | 332° |
| 2026-05-01 15:11 | 55.01025 | 82.64013 | 377 ft | 7 kts | 344° |
| 2026-05-01 15:11 | 55.01151 | 82.64050 | 377 ft | 22 kts | 71° |
| 2026-05-01 15:11 | 55.01228 | 82.64892 | 375 ft | 116 kts | 81° |
| 2026-05-01 15:12 | 55.01385 | 82.66713 | 454 ft | 180 kts | 83° |
| 2026-05-01 15:12 | 55.01813 | 82.71643 | 2064 ft | 221 kts | 85° |
| 2026-05-01 15:12 | 55.02070 | 82.74329 | 2960 ft | 234 kts | 85° |
| 2026-05-01 15:13 | 55.02875 | 82.83142 | 4004 ft | 247 kts | 86° |
| 2026-05-01 15:14 | 55.01910 | 82.88646 | 4043 ft | 249 kts | 135° |
| 2026-05-01 15:14 | 55.00720 | 82.90791 | 5002 ft | 242 kts | 136° |
| 2026-05-01 15:14 | 54.98267 | 82.95186 | 5887 ft | 261 kts | 132° |
| 2026-05-01 15:15 | 54.97315 | 83.01295 | 5995 ft | 273 kts | 95° |
| 2026-05-01 15:15 | 54.97239 | 83.07650 | 8230 ft | 238 kts | 95° |
| 2026-05-01 15:16 | 54.97182 | 83.13539 | 9974 ft | 255 kts | 94° |
| 2026-05-01 15:16 | 54.97125 | 83.20116 | 11112 ft | 289 kts | 94° |
| 2026-05-01 15:17 | 54.96748 | 83.27511 | 12120 ft | 326 kts | 101° |
| 2026-05-01 15:18 | 54.95953 | 83.40088 | 12913 ft | 358 kts | 98° |
| 2026-05-01 15:18 | 54.95615 | 83.44372 | 13058 ft | 359 kts | 101° |
| 2026-05-01 15:19 | 54.94482 | 83.57222 | 12974 ft | 359 kts | 99° |
| 2026-05-01 15:19 | 54.93849 | 83.65828 | 12982 ft | 359 kts | 99° |
| 2026-05-01 15:19 | 54.93521 | 83.70152 | 13061 ft | 362 kts | 99° |
| 2026-05-01 15:20 | 54.92856 | 83.78851 | 14743 ft | 369 kts | 99° |
| 2026-05-01 15:20 | 54.92513 | 83.83298 | 15531 ft | 373 kts | 99° |
| 2026-05-01 15:20 | 54.92164 | 83.87795 | 16299 ft | 378 kts | 99° |
| 2026-05-01 15:21 | 54.91809 | 83.92352 | 17039 ft | 383 kts | 99° |
| 2026-05-01 15:21 | 54.91447 | 83.96970 | 17792 ft | 388 kts | 99° |
| 2026-05-01 15:21 | 54.91080 | 84.01642 | 18476 ft | 393 kts | 99° |
| 2026-05-01 15:21 | 54.90706 | 84.06368 | 19126 ft | 396 kts | 99° |
| 2026-05-01 15:22 | 54.89945 | 84.15915 | 20465 ft | 402 kts | 99° |
| 2026-05-01 15:22 | 54.89558 | 84.20735 | 21107 ft | 405 kts | 99° |
| 2026-05-01 15:22 | 54.89165 | 84.25592 | 21746 ft | 408 kts | 99° |
| 2026-05-01 15:23 | 54.88767 | 84.30495 | 22293 ft | 412 kts | 99° |
| 2026-05-01 15:23 | 54.88365 | 84.35427 | 22695 ft | 413 kts | 100° |
| 2026-05-01 15:23 | 54.87959 | 84.40381 | 23116 ft | 415 kts | 100° |
| 2026-05-01 15:23 | 54.87549 | 84.45351 | 23534 ft | 418 kts | 100° |
| 2026-05-01 15:24 | 54.87134 | 84.50361 | 23878 ft | 420 kts | 100° |
| 2026-05-01 15:24 | 54.86716 | 84.55393 | 24213 ft | 422 kts | 99° |
| 2026-05-01 15:24 | 54.86294 | 84.60449 | 24553 ft | 425 kts | 99° |
| 2026-05-01 15:24 | 54.85871 | 84.65536 | 24897 ft | 427 kts | 98° |
| 2026-05-01 15:25 | 54.85599 | 84.70691 | 25247 ft | 430 kts | 96° |
| 2026-05-01 15:25 | 54.85335 | 84.75832 | 25596 ft | 433 kts | 96° |
| 2026-05-01 15:25 | 54.85058 | 84.80988 | 25967 ft | 435 kts | 96° |
| 2026-05-01 15:25 | 54.84770 | 84.86228 | 26328 ft | 438 kts | 96° |
| 2026-05-01 15:26 | 54.84477 | 84.91494 | 26687 ft | 439 kts | 96° |
| 2026-05-01 15:26 | 54.84190 | 84.96764 | 27060 ft | 439 kts | 96° |
| 2026-05-01 15:26 | 54.83950 | 85.02043 | 27458 ft | 439 kts | 95° |
| 2026-05-01 15:26 | 54.83716 | 85.07315 | 27835 ft | 438 kts | 95° |
| 2026-05-01 15:27 | 54.83479 | 85.12576 | 28226 ft | 438 kts | 95° |
| 2026-05-01 15:27 | 54.83241 | 85.17848 | 28625 ft | 438 kts | 95° |
| 2026-05-01 15:27 | 54.83003 | 85.23103 | 29001 ft | 438 kts | 95° |
| 2026-05-01 15:28 | 54.82523 | 85.33611 | 29034 ft | 436 kts | 95° |
| 2026-05-01 15:28 | 54.82041 | 85.44088 | 29028 ft | 436 kts | 95° |
| 2026-05-01 15:29 | 54.81309 | 85.59807 | 29032 ft | 436 kts | 95° |
| 2026-05-01 15:30 | 54.80395 | 85.79070 | 29030 ft | 436 kts | 95° |
| 2026-05-01 15:31 | 54.79298 | 86.01723 | 30092 ft | 436 kts | 95° |
| 2026-05-01 15:31 | 54.78775 | 86.12179 | 30551 ft | 435 kts | 94° |
| 2026-05-01 15:32 | 54.78243 | 86.22591 | 31019 ft | 433 kts | 94° |
| 2026-05-01 15:32 | 54.77699 | 86.32953 | 31489 ft | 431 kts | 94° |
| 2026-05-01 15:33 | 54.76862 | 86.48438 | 32215 ft | 429 kts | 94° |
| 2026-05-01 15:34 | 54.76007 | 86.63836 | 32967 ft | 427 kts | 94° |